Terminal Aerodrome Forecast
Issued by NWS Brownsville, TX

Current Version | Previous Version | Text Only | Print | Product List | Glossary On
Versions: 1 2 3 4 5 6 7 8 9 10 11 12 13 14 15 16 17 18
000
FTUS44 KBRO 052340
TAFMFE
TAF
KMFE 052340Z 0600/0624 14013KT P6SM SCT028 BKN035 OVC045
     FM060300 13010KT P6SM BKN025
     FM060600 13010KT P6SM BKN015
     FM061500 13015G20KT P6SM SCT015 BKN030
     FM062100 13016G23KT P6SM SCT030 BKN050=

USA.gov is the U.S. government's official web portal to all federal, state and local government web resources and services.